sensor_id;sensor_type;location;lat;lon;timestamp;P1;durP1;ratioP1;P2;durP2;ratioP2
43552;SDS011;29153;42.696;23.218;2023-04-01T00:01:57;6.65;;;1.52;;
43552;SDS011;29153;42.696;23.218;2023-04-01T00:04:24;4.85;;;1.05;;
43552;SDS011;29153;42.696;23.218;2023-04-01T00:06:52;7.00;;;1.55;;
43552;SDS011;29153;42.696;23.218;2023-04-01T00:09:19;9.23;;;1.35;;
43552;SDS011;29153;42.696;23.218;2023-04-01T00:11:47;10.15;;;1.25;;
43552;SDS011;29153;42.696;23.218;2023-04-01T00:14:14;9.55;;;1.15;;
43552;SDS011;29153;42.696;23.218;2023-04-01T00:16:42;8.53;;;1.20;;
43552;SDS011;29153;42.696;23.218;2023-04-01T00:19:09;4.70;;;1.25;;
43552;SDS011;29153;42.696;23.218;2023-04-01T00:21:37;3.58;;;0.70;;
43552;SDS011;29153;42.696;23.218;2023-04-01T00:24:04;5.78;;;1.60;;
43552;SDS011;29153;42.696;23.218;2023-04-01T00:26:32;10.58;;;1.62;;
43552;SDS011;29153;42.696;23.218;2023-04-01T00:28:59;5.62;;;1.07;;
43552;SDS011;29153;42.696;23.218;2023-04-01T00:31:27;4.80;;;0.93;;
43552;SDS011;29153;42.696;23.218;2023-04-01T00:33:55;4.85;;;1.25;;
43552;SDS011;29153;42.696;23.218;2023-04-01T00:36:23;4.87;;;1.75;;
43552;SDS011;29153;42.696;23.218;2023-04-01T00:38:50;5.47;;;0.93;;
43552;SDS011;29153;42.696;23.218;2023-04-01T00:41:18;3.87;;;0.80;;
43552;SDS011;29153;42.696;23.218;2023-04-01T00:43:47;6.45;;;1.30;;
43552;SDS011;29153;42.696;23.218;2023-04-01T00:46:17;2.83;;;0.88;;
43552;SDS011;29153;42.696;23.218;2023-04-01T00:48:49;3.87;;;1.10;;
43552;SDS011;29153;42.696;23.218;2023-04-01T00:51:20;4.95;;;0.88;;
43552;SDS011;29153;42.696;23.218;2023-04-01T00:53:52;4.60;;;1.07;;
43552;SDS011;29153;42.696;23.218;2023-04-01T00:56:27;3.58;;;0.75;;
43552;SDS011;29153;42.696;23.218;2023-04-01T00:58:59;8.13;;;1.20;;
43552;SDS011;29153;42.696;23.218;2023-04-01T01:01:22;5.35;;;0.93;;
43552;SDS011;29153;42.696;23.218;2023-04-01T01:03:51;5.17;;;0.93;;
43552;SDS011;29153;42.696;23.218;2023-04-01T01:11:43;3.08;;;1.10;;
43552;SDS011;29153;42.696;23.218;2023-04-01T01:19:45;3.72;;;0.72;;
43552;SDS011;29153;42.696;23.218;2023-04-01T01:23:17;3.95;;;1.10;;
43552;SDS011;29153;42.696;23.218;2023-04-01T01:30:52;5.30;;;0.85;;
43552;SDS011;29153;42.696;23.218;2023-04-01T01:33:33;3.55;;;0.85;;
43552;SDS011;29153;42.696;23.218;2023-04-01T01:36:02;4.55;;;1.00;;
43552;SDS011;29153;42.696;23.218;2023-04-01T01:38:32;4.83;;;0.95;;
43552;SDS011;29153;42.696;23.218;2023-04-01T01:41:01;4.50;;;1.10;;
43552;SDS011;29153;42.696;23.218;2023-04-01T01:43:33;5.92;;;0.70;;
43552;SDS011;29153;42.696;23.218;2023-04-01T01:46:05;4.87;;;0.70;;
43552;SDS011;29153;42.696;23.218;2023-04-01T01:48:33;5.15;;;0.60;;
43552;SDS011;29153;42.696;23.218;2023-04-01T01:51:03;5.03;;;0.80;;
43552;SDS011;29153;42.696;23.218;2023-04-01T01:53:32;4.08;;;1.00;;
43552;SDS011;29153;42.696;23.218;2023-04-01T01:55:59;3.08;;;0.90;;
43552;SDS011;29153;42.696;23.218;2023-04-01T01:58:32;4.42;;;1.10;;
43552;SDS011;29153;42.696;23.218;2023-04-01T02:01:05;5.92;;;1.30;;
43552;SDS011;29153;42.696;23.218;2023-04-01T02:03:35;3.62;;;0.80;;
43552;SDS011;29153;42.696;23.218;2023-04-01T02:06:06;2.90;;;0.70;;
43552;SDS011;29153;42.696;23.218;2023-04-01T02:08:38;6.37;;;0.50;;
43552;SDS011;29153;42.696;23.218;2023-04-01T02:11:08;4.97;;;0.90;;
43552;SDS011;29153;42.696;23.218;2023-04-01T02:13:38;11.33;;;5.72;;
43552;SDS011;29153;42.696;23.218;2023-04-01T02:16:23;14.25;;;5.40;;
43552;SDS011;29153;42.696;23.218;2023-04-01T02:18:48;16.45;;;6.70;;
43552;SDS011;29153;42.696;23.218;2023-04-01T02:21:19;12.55;;;6.03;;
43552;SDS011;29153;42.696;23.218;2023-04-01T02:23:49;14.07;;;5.20;;
43552;SDS011;29153;42.696;23.218;2023-04-01T02:26:19;5.72;;;1.35;;
43552;SDS011;29153;42.696;23.218;2023-04-01T02:28:48;5.65;;;1.10;;
43552;SDS011;29153;42.696;23.218;2023-04-01T02:31:17;4.60;;;0.82;;
43552;SDS011;29153;42.696;23.218;2023-04-01T02:33:45;6.03;;;1.00;;
43552;SDS011;29153;42.696;23.218;2023-04-01T02:36:15;8.10;;;1.30;;
43552;SDS011;29153;42.696;23.218;2023-04-01T02:38:44;6.47;;;0.95;;
43552;SDS011;29153;42.696;23.218;2023-04-01T02:41:13;5.55;;;1.10;;
43552;SDS011;29153;42.696;23.218;2023-04-01T02:43:40;5.20;;;1.00;;
43552;SDS011;29153;42.696;23.218;2023-04-01T02:46:08;4.97;;;1.02;;
43552;SDS011;29153;42.696;23.218;2023-04-01T02:48:35;4.40;;;0.80;;
43552;SDS011;29153;42.696;23.218;2023-04-01T02:51:03;3.62;;;0.88;;
43552;SDS011;29153;42.696;23.218;2023-04-01T02:53:30;6.15;;;0.90;;
43552;SDS011;29153;42.696;23.218;2023-04-01T02:55:58;8.95;;;1.10;;
43552;SDS011;29153;42.696;23.218;2023-04-01T02:58:25;4.10;;;0.80;;
43552;SDS011;29153;42.696;23.218;2023-04-01T03:00:52;7.28;;;1.27;;
43552;SDS011;29153;42.696;23.218;2023-04-01T03:03:20;1.95;;;0.65;;
43552;SDS011;29153;42.696;23.218;2023-04-01T03:05:48;4.53;;;0.82;;
43552;SDS011;29153;42.696;23.218;2023-04-01T03:08:15;5.03;;;1.50;;
43552;SDS011;29153;42.696;23.218;2023-04-01T03:10:42;3.75;;;1.42;;
43552;SDS011;29153;42.696;23.218;2023-04-01T03:13:10;4.55;;;1.10;;
43552;SDS011;29153;42.696;23.218;2023-04-01T03:15:37;4.87;;;1.12;;
43552;SDS011;29153;42.696;23.218;2023-04-01T03:18:05;8.28;;;0.90;;
43552;SDS011;29153;42.696;23.218;2023-04-01T03:20:33;5.53;;;1.00;;
43552;SDS011;29153;42.696;23.218;2023-04-01T03:23:00;8.08;;;1.22;;
43552;SDS011;29153;42.696;23.218;2023-04-01T03:25:27;6.55;;;1.87;;
43552;SDS011;29153;42.696;23.218;2023-04-01T03:27:56;7.17;;;1.30;;
43552;SDS011;29153;42.696;23.218;2023-04-01T03:30:25;5.53;;;0.93;;
43552;SDS011;29153;42.696;23.218;2023-04-01T03:32:53;7.28;;;1.35;;
43552;SDS011;29153;42.696;23.218;2023-04-01T03:35:20;7.05;;;1.05;;
43552;SDS011;29153;42.696;23.218;2023-04-01T03:37:48;3.85;;;1.00;;
43552;SDS011;29153;42.696;23.218;2023-04-01T03:40:17;4.37;;;1.15;;
43552;SDS011;29153;42.696;23.218;2023-04-01T03:42:44;5.92;;;1.65;;
43552;SDS011;29153;42.696;23.218;2023-04-01T03:45:12;3.75;;;0.88;;
43552;SDS011;29153;42.696;23.218;2023-04-01T03:47:39;3.72;;;0.70;;
43552;SDS011;29153;42.696;23.218;2023-04-01T03:50:07;5.12;;;1.37;;
43552;SDS011;29153;42.696;23.218;2023-04-01T03:52:35;6.15;;;1.07;;
43552;SDS011;29153;42.696;23.218;2023-04-01T03:55:03;4.80;;;1.17;;
43552;SDS011;29153;42.696;23.218;2023-04-01T03:59:58;3.25;;;1.15;;
43552;SDS011;29153;42.696;23.218;2023-04-01T04:02:25;7.40;;;1.42;;
43552;SDS011;29153;42.696;23.218;2023-04-01T04:04:53;4.47;;;1.30;;
43552;SDS011;29153;42.696;23.218;2023-04-01T04:07:20;4.75;;;1.30;;
43552;SDS011;29153;42.696;23.218;2023-04-01T04:09:48;6.22;;;1.15;;
43552;SDS011;29153;42.696;23.218;2023-04-01T04:12:15;3.35;;;1.32;;
43552;SDS011;29153;42.696;23.218;2023-04-01T04:14:42;4.08;;;1.37;;
43552;SDS011;29153;42.696;23.218;2023-04-01T04:17:10;5.42;;;2.50;;
43552;SDS011;29153;42.696;23.218;2023-04-01T04:19:40;4.40;;;2.10;;
43552;SDS011;29153;42.696;23.218;2023-04-01T04:22:07;4.37;;;1.65;;
43552;SDS011;29153;42.696;23.218;2023-04-01T04:24:35;7.05;;;2.12;;
43552;SDS011;29153;42.696;23.218;2023-04-01T04:27:03;10.88;;;3.42;;
43552;SDS011;29153;42.696;23.218;2023-04-01T04:29:30;14.38;;;5.90;;
43552;SDS011;29153;42.696;23.218;2023-04-01T04:31:58;11.57;;;4.90;;
43552;SDS011;29153;42.696;23.218;2023-04-01T04:34:25;8.28;;;3.98;;
43552;SDS011;29153;42.696;23.218;2023-04-01T04:36:53;9.53;;;3.85;;
43552;SDS011;29153;42.696;23.218;2023-04-01T04:39:20;10.45;;;4.00;;
43552;SDS011;29153;42.696;23.218;2023-04-01T04:41:48;13.35;;;6.50;;
43552;SDS011;29153;42.696;23.218;2023-04-01T04:44:16;11.22;;;4.42;;
43552;SDS011;29153;42.696;23.218;2023-04-01T04:46:43;14.07;;;6.12;;
43552;SDS011;29153;42.696;23.218;2023-04-01T04:49:11;17.92;;;7.33;;
43552;SDS011;29153;42.696;23.218;2023-04-01T04:51:39;16.70;;;7.17;;
43552;SDS011;29153;42.696;23.218;2023-04-01T04:54:07;13.48;;;6.87;;
43552;SDS011;29153;42.696;23.218;2023-04-01T04:56:35;13.58;;;6.08;;
43552;SDS011;29153;42.696;23.218;2023-04-01T04:59:03;11.50;;;4.20;;
43552;SDS011;29153;42.696;23.218;2023-04-01T05:01:30;16.07;;;5.00;;
43552;SDS011;29153;42.696;23.218;2023-04-01T05:03:59;27.55;;;11.43;;
43552;SDS011;29153;42.696;23.218;2023-04-01T05:06:26;16.50;;;7.92;;
43552;SDS011;29153;42.696;23.218;2023-04-01T05:08:55;14.23;;;5.37;;
43552;SDS011;29153;42.696;23.218;2023-04-01T05:11:23;13.30;;;5.10;;
43552;SDS011;29153;42.696;23.218;2023-04-01T05:13:51;13.65;;;6.15;;
43552;SDS011;29153;42.696;23.218;2023-04-01T05:16:19;14.85;;;6.72;;
43552;SDS011;29153;42.696;23.218;2023-04-01T05:18:47;11.45;;;5.67;;
43552;SDS011;29153;42.696;23.218;2023-04-01T05:21:15;14.63;;;5.92;;
43552;SDS011;29153;42.696;23.218;2023-04-01T05:23:42;15.18;;;7.80;;
43552;SDS011;29153;42.696;23.218;2023-04-01T05:26:11;13.40;;;6.60;;
43552;SDS011;29153;42.696;23.218;2023-04-01T05:28:40;13.05;;;6.62;;
43552;SDS011;29153;42.696;23.218;2023-04-01T05:31:08;16.52;;;8.00;;
43552;SDS011;29153;42.696;23.218;2023-04-01T05:33:35;17.80;;;6.87;;
43552;SDS011;29153;42.696;23.218;2023-04-01T05:36:11;17.37;;;7.00;;
43552;SDS011;29153;42.696;23.218;2023-04-01T05:38:39;17.85;;;7.08;;
43552;SDS011;29153;42.696;23.218;2023-04-01T05:41:08;14.13;;;7.20;;
43552;SDS011;29153;42.696;23.218;2023-04-01T05:43:36;15.53;;;8.18;;
43552;SDS011;29153;42.696;23.218;2023-04-01T05:46:05;14.98;;;6.83;;
43552;SDS011;29153;42.696;23.218;2023-04-01T05:48:32;11.63;;;5.95;;
43552;SDS011;29153;42.696;23.218;2023-04-01T05:51:01;14.95;;;6.00;;
43552;SDS011;29153;42.696;23.218;2023-04-01T05:53:29;15.35;;;7.17;;
43552;SDS011;29153;42.696;23.218;2023-04-01T05:56:01;12.78;;;5.83;;
43552;SDS011;29153;42.696;23.218;2023-04-01T05:58:30;12.18;;;5.85;;
43552;SDS011;29153;42.696;23.218;2023-04-01T06:01:09;11.12;;;5.10;;
43552;SDS011;29153;42.696;23.218;2023-04-01T06:03:34;8.55;;;4.40;;
43552;SDS011;29153;42.696;23.218;2023-04-01T06:06:01;11.40;;;5.08;;
43552;SDS011;29153;42.696;23.218;2023-04-01T06:08:32;11.53;;;4.67;;
43552;SDS011;29153;42.696;23.218;2023-04-01T06:13:57;16.05;;;4.42;;
43552;SDS011;29153;42.696;23.218;2023-04-01T06:32:45;14.47;;;5.08;;
43552;SDS011;29153;42.696;23.218;2023-04-01T06:35:31;16.42;;;6.65;;
43552;SDS011;29153;42.696;23.218;2023-04-01T06:38:11;15.35;;;5.50;;
43552;SDS011;29153;42.696;23.218;2023-04-01T06:44:14;9.95;;;4.83;;
43552;SDS011;29153;42.696;23.218;2023-04-01T06:55:17;13.72;;;3.52;;
43552;SDS011;29153;42.696;23.218;2023-04-01T06:57:49;12.25;;;3.70;;
43552;SDS011;29153;42.696;23.218;2023-04-01T07:00:29;10.55;;;3.95;;
43552;SDS011;29153;42.696;23.218;2023-04-01T07:05:31;16.55;;;4.65;;
43552;SDS011;29153;42.696;23.218;2023-04-01T07:08:02;10.25;;;4.92;;
43552;SDS011;29153;42.696;23.218;2023-04-01T07:13:20;10.78;;;3.80;;
43552;SDS011;29153;42.696;23.218;2023-04-01T07:15:57;13.30;;;5.05;;
43552;SDS011;29153;42.696;23.218;2023-04-01T07:18:37;13.80;;;7.22;;
43552;SDS011;29153;42.696;23.218;2023-04-01T07:21:05;14.43;;;6.05;;
43552;SDS011;29153;42.696;23.218;2023-04-01T07:23:39;14.20;;;6.95;;
43552;SDS011;29153;42.696;23.218;2023-04-01T07:26:20;11.80;;;5.05;;
43552;SDS011;29153;42.696;23.218;2023-04-01T07:28:46;10.48;;;5.17;;
43552;SDS011;29153;42.696;23.218;2023-04-01T07:37:25;9.93;;;3.70;;
43552;SDS011;29153;42.696;23.218;2023-04-01T07:40:11;10.63;;;4.40;;
43552;SDS011;29153;42.696;23.218;2023-04-01T07:45:30;14.80;;;5.40;;
43552;SDS011;29153;42.696;23.218;2023-04-01T07:48:21;13.28;;;5.28;;
43552;SDS011;29153;42.696;23.218;2023-04-01T07:53:58;13.50;;;4.70;;
43552;SDS011;29153;42.696;23.218;2023-04-01T07:59:18;12.80;;;4.15;;
43552;SDS011;29153;42.696;23.218;2023-04-01T08:07:32;12.88;;;5.58;;
43552;SDS011;29153;42.696;23.218;2023-04-01T08:18:46;13.80;;;4.55;;
43552;SDS011;29153;42.696;23.218;2023-04-01T08:21:32;12.30;;;4.08;;
43552;SDS011;29153;42.696;23.218;2023-04-01T08:24:05;8.63;;;4.70;;
43552;SDS011;29153;42.696;23.218;2023-04-01T08:26:44;15.98;;;5.97;;
43552;SDS011;29153;42.696;23.218;2023-04-01T08:29:19;11.20;;;3.58;;
43552;SDS011;29153;42.696;23.218;2023-04-01T08:34:39;10.68;;;4.00;;
43552;SDS011;29153;42.696;23.218;2023-04-01T08:37:15;11.90;;;3.37;;
43552;SDS011;29153;42.696;23.218;2023-04-01T08:39:52;8.75;;;4.25;;
43552;SDS011;29153;42.696;23.218;2023-04-01T08:53:33;8.98;;;3.35;;
43552;SDS011;29153;42.696;23.218;2023-04-01T08:56:26;11.08;;;2.65;;
43552;SDS011;29153;42.696;23.218;2023-04-01T09:01:58;12.20;;;2.52;;
43552;SDS011;29153;42.696;23.218;2023-04-01T09:10:19;10.82;;;1.90;;
43552;SDS011;29153;42.696;23.218;2023-04-01T09:18:15;9.40;;;1.25;;
43552;SDS011;29153;42.696;23.218;2023-04-01T09:37:35;8.38;;;1.00;;
43552;SDS011;29153;42.696;23.218;2023-04-01T09:40:31;7.28;;;1.00;;
43552;SDS011;29153;42.696;23.218;2023-04-01T09:51:20;19.32;;;7.55;;
43552;SDS011;29153;42.696;23.218;2023-04-01T09:54:07;10.78;;;4.30;;
43552;SDS011;29153;42.696;23.218;2023-04-01T10:05:27;8.68;;;1.55;;
43552;SDS011;29153;42.696;23.218;2023-04-01T10:13:41;4.92;;;1.80;;
43552;SDS011;29153;42.696;23.218;2023-04-01T10:19:37;10.18;;;1.50;;
43552;SDS011;29153;42.696;23.218;2023-04-01T10:22:24;6.78;;;1.80;;
43552;SDS011;29153;42.696;23.218;2023-04-01T10:27:44;4.83;;;0.90;;
43552;SDS011;29153;42.696;23.218;2023-04-01T10:44:24;4.50;;;0.70;;
43552;SDS011;29153;42.696;23.218;2023-04-01T10:57:34;3.50;;;0.95;;
43552;SDS011;29153;42.696;23.218;2023-04-01T11:02:44;5.90;;;1.00;;
43552;SDS011;29153;42.696;23.218;2023-04-01T11:08:25;4.10;;;1.00;;
43552;SDS011;29153;42.696;23.218;2023-04-01T11:13:36;5.83;;;1.02;;
43552;SDS011;29153;42.696;23.218;2023-04-01T11:30:28;5.17;;;0.93;;
43552;SDS011;29153;42.696;23.218;2023-04-01T11:33:19;5.65;;;1.30;;
43552;SDS011;29153;42.696;23.218;2023-04-01T11:38:37;13.60;;;2.05;;
43552;SDS011;29153;42.696;23.218;2023-04-01T11:49:49;23.45;;;6.10;;
43552;SDS011;29153;42.696;23.218;2023-04-01T11:55:23;16.20;;;6.70;;
43552;SDS011;29153;42.696;23.218;2023-04-01T12:01:17;12.58;;;4.62;;
43552;SDS011;29153;42.696;23.218;2023-04-01T12:09:46;22.15;;;7.75;;
43552;SDS011;29153;42.696;23.218;2023-04-01T12:20:56;13.50;;;5.47;;
43552;SDS011;29153;42.696;23.218;2023-04-01T12:26:42;15.58;;;4.47;;
43552;SDS011;29153;42.696;23.218;2023-04-01T12:29:23;24.37;;;7.15;;
43552;SDS011;29153;42.696;23.218;2023-04-01T12:40:18;18.82;;;6.70;;
43552;SDS011;29153;42.696;23.218;2023-04-01T12:43:04;9.60;;;3.17;;
43552;SDS011;29153;42.696;23.218;2023-04-01T12:45:31;56.45;;;22.02;;
43552;SDS011;29153;42.696;23.218;2023-04-01T12:51:05;40.80;;;19.15;;
43552;SDS011;29153;42.696;23.218;2023-04-01T12:53:47;69.85;;;34.00;;
43552;SDS011;29153;42.696;23.218;2023-04-01T12:56:38;62.17;;;30.48;;
43552;SDS011;29153;42.696;23.218;2023-04-01T12:59:30;18.32;;;9.15;;
43552;SDS011;29153;42.696;23.218;2023-04-01T13:04:51;14.20;;;6.72;;
43552;SDS011;29153;42.696;23.218;2023-04-01T13:07:37;6.42;;;2.75;;
43552;SDS011;29153;42.696;23.218;2023-04-01T13:15:51;4.22;;;2.22;;
43552;SDS011;29153;42.696;23.218;2023-04-01T13:18:24;4.28;;;1.60;;
43552;SDS011;29153;42.696;23.218;2023-04-01T13:24:10;8.20;;;5.85;;
43552;SDS011;29153;42.696;23.218;2023-04-01T13:27:04;15.53;;;8.63;;
43552;SDS011;29153;42.696;23.218;2023-04-01T13:29:45;19.57;;;10.30;;
43552;SDS011;29153;42.696;23.218;2023-04-01T13:32:34;31.77;;;18.20;;
43552;SDS011;29153;42.696;23.218;2023-04-01T13:35:12;12.47;;;6.12;;
43552;SDS011;29153;42.696;23.218;2023-04-01T13:43:19;14.58;;;10.63;;
43552;SDS011;29153;42.696;23.218;2023-04-01T13:46:14;10.78;;;6.15;;
43552;SDS011;29153;42.696;23.218;2023-04-01T13:51:56;21.40;;;12.15;;
43552;SDS011;29153;42.696;23.218;2023-04-01T13:57:45;17.35;;;9.68;;
43552;SDS011;29153;42.696;23.218;2023-04-01T14:02:46;28.30;;;14.85;;
43552;SDS011;29153;42.696;23.218;2023-04-01T14:08:05;34.67;;;16.90;;
43552;SDS011;29153;42.696;23.218;2023-04-01T14:10:47;18.12;;;9.75;;
43552;SDS011;29153;42.696;23.218;2023-04-01T14:16:22;7.90;;;3.90;;
43552;SDS011;29153;42.696;23.218;2023-04-01T14:22:21;4.58;;;3.02;;
43552;SDS011;29153;42.696;23.218;2023-04-01T14:27:06;6.47;;;2.85;;
43552;SDS011;29153;42.696;23.218;2023-04-01T14:35:09;10.70;;;2.40;;
43552;SDS011;29153;42.696;23.218;2023-04-01T14:40:11;5.62;;;3.45;;
43552;SDS011;29153;42.696;23.218;2023-04-01T14:48:34;5.03;;;3.08;;
43552;SDS011;29153;42.696;23.218;2023-04-01T14:51:08;7.58;;;5.62;;
43552;SDS011;29153;42.696;23.218;2023-04-01T14:53:37;8.28;;;4.33;;
43552;SDS011;29153;42.696;23.218;2023-04-01T14:56:08;12.20;;;7.97;;
43552;SDS011;29153;42.696;23.218;2023-04-01T14:58:50;7.00;;;4.80;;
43552;SDS011;29153;42.696;23.218;2023-04-01T15:01:34;7.33;;;4.78;;
43552;SDS011;29153;42.696;23.218;2023-04-01T15:04:16;13.83;;;8.33;;
43552;SDS011;29153;42.696;23.218;2023-04-01T15:10:12;5.45;;;4.12;;
43552;SDS011;29153;42.696;23.218;2023-04-01T15:15:53;5.92;;;3.45;;
43552;SDS011;29153;42.696;23.218;2023-04-01T15:18:38;6.62;;;3.87;;
43552;SDS011;29153;42.696;23.218;2023-04-01T15:21:06;4.70;;;3.10;;
43552;SDS011;29153;42.696;23.218;2023-04-01T15:23:57;7.85;;;4.25;;
43552;SDS011;29153;42.696;23.218;2023-04-01T15:27:00;7.33;;;4.62;;
43552;SDS011;29153;42.696;23.218;2023-04-01T15:35:03;5.58;;;2.70;;
43552;SDS011;29153;42.696;23.218;2023-04-01T15:38:04;4.12;;;2.45;;
43552;SDS011;29153;42.696;23.218;2023-04-01T15:42:55;5.95;;;2.83;;
43552;SDS011;29153;42.696;23.218;2023-04-01T15:51:07;3.10;;;1.37;;
43552;SDS011;29153;42.696;23.218;2023-04-01T15:53:44;11.43;;;5.83;;
43552;SDS011;29153;42.696;23.218;2023-04-01T15:56:36;3.00;;;0.75;;
43552;SDS011;29153;42.696;23.218;2023-04-01T16:02:21;6.00;;;3.55;;
43552;SDS011;29153;42.696;23.218;2023-04-01T16:08:01;9.43;;;4.33;;
43552;SDS011;29153;42.696;23.218;2023-04-01T16:10:55;4.60;;;2.62;;
43552;SDS011;29153;42.696;23.218;2023-04-01T16:13:33;15.75;;;8.40;;
43552;SDS011;29153;42.696;23.218;2023-04-01T16:16:14;3.20;;;1.52;;
43552;SDS011;29153;42.696;23.218;2023-04-01T16:21:24;3.35;;;1.50;;
43552;SDS011;29153;42.696;23.218;2023-04-01T16:26:55;3.50;;;1.92;;
43552;SDS011;29153;42.696;23.218;2023-04-01T16:29:43;4.62;;;1.35;;
43552;SDS011;29153;42.696;23.218;2023-04-01T16:33:03;8.05;;;3.77;;
43552;SDS011;29153;42.696;23.218;2023-04-01T16:37:49;9.30;;;3.85;;
43552;SDS011;29153;42.696;23.218;2023-04-01T16:42:56;10.60;;;5.28;;
43552;SDS011;29153;42.696;23.218;2023-04-01T16:45:24;7.60;;;2.83;;
43552;SDS011;29153;42.696;23.218;2023-04-01T16:48:05;3.10;;;1.05;;
43552;SDS011;29153;42.696;23.218;2023-04-01T16:50:39;12.73;;;8.73;;
43552;SDS011;29153;42.696;23.218;2023-04-01T16:53:09;9.43;;;5.47;;
43552;SDS011;29153;42.696;23.218;2023-04-01T16:58:23;17.67;;;9.70;;
43552;SDS011;29153;42.696;23.218;2023-04-01T17:00:49;11.65;;;5.67;;
43552;SDS011;29153;42.696;23.218;2023-04-01T17:11:16;19.55;;;7.22;;
43552;SDS011;29153;42.696;23.218;2023-04-01T17:13:50;13.08;;;7.12;;
43552;SDS011;29153;42.696;23.218;2023-04-01T17:16:44;6.47;;;4.78;;
43552;SDS011;29153;42.696;23.218;2023-04-01T17:19:21;3.72;;;3.08;;
43552;SDS011;29153;42.696;23.218;2023-04-01T17:24:26;2.58;;;1.50;;
43552;SDS011;29153;42.696;23.218;2023-04-01T17:27:13;3.87;;;2.80;;
43552;SDS011;29153;42.696;23.218;2023-04-01T17:29:55;4.78;;;2.55;;
43552;SDS011;29153;42.696;23.218;2023-04-01T17:35:22;4.70;;;1.90;;
43552;SDS011;29153;42.696;23.218;2023-04-01T17:38:17;4.50;;;3.05;;
43552;SDS011;29153;42.696;23.218;2023-04-01T17:46:08;6.85;;;6.00;;
43552;SDS011;29153;42.696;23.218;2023-04-01T17:48:52;6.05;;;4.40;;
43552;SDS011;29153;42.696;23.218;2023-04-01T17:51:24;4.92;;;2.77;;
43552;SDS011;29153;42.696;23.218;2023-04-01T17:56:41;11.55;;;8.38;;
43552;SDS011;29153;42.696;23.218;2023-04-01T17:59:26;7.90;;;6.03;;
43552;SDS011;29153;42.696;23.218;2023-04-01T18:02:25;5.28;;;3.12;;
43552;SDS011;29153;42.696;23.218;2023-04-01T18:07:33;3.17;;;2.20;;
43552;SDS011;29153;42.696;23.218;2023-04-01T18:21:21;4.37;;;3.33;;
43552;SDS011;29153;42.696;23.218;2023-04-01T18:26:50;4.35;;;3.05;;
43552;SDS011;29153;42.696;23.218;2023-04-01T18:37:47;9.53;;;7.37;;
43552;SDS011;29153;42.696;23.218;2023-04-01T18:43:19;16.35;;;11.53;;
43552;SDS011;29153;42.696;23.218;2023-04-01T18:45:51;10.98;;;6.12;;
43552;SDS011;29153;42.696;23.218;2023-04-01T18:51:38;10.25;;;6.28;;
43552;SDS011;29153;42.696;23.218;2023-04-01T18:54:27;5.50;;;3.20;;
43552;SDS011;29153;42.696;23.218;2023-04-01T18:56:58;10.38;;;5.10;;
43552;SDS011;29153;42.696;23.218;2023-04-01T18:59:36;6.42;;;3.45;;
43552;SDS011;29153;42.696;23.218;2023-04-01T19:02:14;8.65;;;5.40;;
43552;SDS011;29153;42.696;23.218;2023-04-01T19:04:50;5.70;;;3.67;;
43552;SDS011;29153;42.696;23.218;2023-04-01T19:10:26;4.35;;;2.83;;
43552;SDS011;29153;42.696;23.218;2023-04-01T19:20:54;1.90;;;0.90;;
43552;SDS011;29153;42.696;23.218;2023-04-01T19:32:04;3.15;;;1.50;;
43552;SDS011;29153;42.696;23.218;2023-04-01T19:35:26;23.30;;;9.15;;
43552;SDS011;29153;42.696;23.218;2023-04-01T19:39:58;6.35;;;3.67;;
43552;SDS011;29153;42.696;23.218;2023-04-01T19:42:51;38.65;;;15.23;;
43552;SDS011;29153;42.696;23.218;2023-04-01T19:50:58;24.70;;;13.15;;
43552;SDS011;29153;42.696;23.218;2023-04-01T19:53:31;25.25;;;9.73;;
43552;SDS011;29153;42.696;23.218;2023-04-01T19:56:17;23.73;;;12.05;;
43552;SDS011;29153;42.696;23.218;2023-04-01T20:01:40;55.25;;;23.85;;
43552;SDS011;29153;42.696;23.218;2023-04-01T20:04:08;42.75;;;17.90;;
43552;SDS011;29153;42.696;23.218;2023-04-01T20:06:51;65.85;;;26.87;;
43552;SDS011;29153;42.696;23.218;2023-04-01T20:15:00;22.87;;;7.87;;
43552;SDS011;29153;42.696;23.218;2023-04-01T20:25:26;13.35;;;6.22;;
43552;SDS011;29153;42.696;23.218;2023-04-01T20:39:18;17.15;;;8.10;;
43552;SDS011;29153;42.696;23.218;2023-04-01T20:41:49;6.33;;;2.80;;
43552;SDS011;29153;42.696;23.218;2023-04-01T20:44:33;12.45;;;5.70;;
43552;SDS011;29153;42.696;23.218;2023-04-01T20:47:16;13.95;;;6.47;;
43552;SDS011;29153;42.696;23.218;2023-04-01T20:52:49;15.70;;;6.17;;
43552;SDS011;29153;42.696;23.218;2023-04-01T20:55:30;8.78;;;3.65;;
43552;SDS011;29153;42.696;23.218;2023-04-01T21:03:33;21.10;;;6.35;;
43552;SDS011;29153;42.696;23.218;2023-04-01T21:33:16;17.30;;;8.28;;
43552;SDS011;29153;42.696;23.218;2023-04-01T21:35:55;11.10;;;5.53;;
43552;SDS011;29153;42.696;23.218;2023-04-01T21:38:28;18.77;;;10.03;;
43552;SDS011;29153;42.696;23.218;2023-04-01T21:44:00;37.98;;;18.25;;
43552;SDS011;29153;42.696;23.218;2023-04-01T21:46:39;21.07;;;10.55;;
43552;SDS011;29153;42.696;23.218;2023-04-01T21:49:17;11.85;;;6.80;;
43552;SDS011;29153;42.696;23.218;2023-04-01T22:06:05;28.70;;;12.47;;
43552;SDS011;29153;42.696;23.218;2023-04-01T22:08:39;44.83;;;20.80;;
43552;SDS011;29153;42.696;23.218;2023-04-01T22:14:05;16.93;;;8.40;;
43552;SDS011;29153;42.696;23.218;2023-04-01T22:16:58;13.25;;;7.25;;
43552;SDS011;29153;42.696;23.218;2023-04-01T22:22:18;10.05;;;5.17;;
43552;SDS011;29153;42.696;23.218;2023-04-01T22:30:13;41.65;;;21.52;;
43552;SDS011;29153;42.696;23.218;2023-04-01T22:32:42;22.60;;;9.78;;
43552;SDS011;29153;42.696;23.218;2023-04-01T22:37:57;15.48;;;8.05;;
43552;SDS011;29153;42.696;23.218;2023-04-01T22:40:42;20.05;;;9.05;;
43552;SDS011;29153;42.696;23.218;2023-04-01T22:51:25;18.55;;;10.10;;
43552;SDS011;29153;42.696;23.218;2023-04-01T22:57:08;9.70;;;4.60;;
43552;SDS011;29153;42.696;23.218;2023-04-01T23:02:30;25.88;;;12.18;;
43552;SDS011;29153;42.696;23.218;2023-04-01T23:04:56;29.67;;;13.68;;
43552;SDS011;29153;42.696;23.218;2023-04-01T23:10:33;7.78;;;3.83;;
43552;SDS011;29153;42.696;23.218;2023-04-01T23:12:58;5.40;;;3.40;;
43552;SDS011;29153;42.696;23.218;2023-04-01T23:15:27;10.50;;;4.85;;
43552;SDS011;29153;42.696;23.218;2023-04-01T23:18:00;12.05;;;5.55;;
43552;SDS011;29153;42.696;23.218;2023-04-01T23:20:32;38.95;;;15.03;;
43552;SDS011;29153;42.696;23.218;2023-04-01T23:23:05;21.48;;;8.30;;
43552;SDS011;29153;42.696;23.218;2023-04-01T23:25:44;7.65;;;2.55;;
43552;SDS011;29153;42.696;23.218;2023-04-01T23:30:47;8.45;;;4.05;;
43552;SDS011;29153;42.696;23.218;2023-04-01T23:35:53;8.35;;;2.17;;
43552;SDS011;29153;42.696;23.218;2023-04-01T23:38:25;10.18;;;4.33;;
43552;SDS011;29153;42.696;23.218;2023-04-01T23:40:53;13.83;;;6.40;;
43552;SDS011;29153;42.696;23.218;2023-04-01T23:45:54;6.00;;;2.67;;
43552;SDS011;29153;42.696;23.218;2023-04-01T23:48:25;7.37;;;2.98;;
43552;SDS011;29153;42.696;23.218;2023-04-01T23:50:52;4.33;;;0.93;;
43552;SDS011;29153;42.696;23.218;2023-04-01T23:53:23;5.83;;;3.27;;
43552;SDS011;29153;42.696;23.218;2023-04-01T23:55:52;4.37;;;1.10;;
43552;SDS011;29153;42.696;23.218;2023-04-01T23:58:24;1.90;;;0.68;;
